sensor_id;sensor_type;location;lat;lon;timestamp;P1;durP1;ratioP1;P2;durP2;ratioP2
4744;SDS011;2386;42.138;24.746;2023-02-26T00:00:28;260.30;;;103.37;;
4744;SDS011;2386;42.138;24.746;2023-02-26T00:02:54;272.70;;;106.23;;
4744;SDS011;2386;42.138;24.746;2023-02-26T00:05:20;270.43;;;105.63;;
4744;SDS011;2386;42.138;24.746;2023-02-26T00:07:45;276.10;;;108.80;;
4744;SDS011;2386;42.138;24.746;2023-02-26T00:10:11;263.47;;;102.63;;
4744;SDS011;2386;42.138;24.746;2023-02-26T00:12:38;270.13;;;106.77;;
4744;SDS011;2386;42.138;24.746;2023-02-26T00:15:04;266.30;;;106.47;;
4744;SDS011;2386;42.138;24.746;2023-02-26T00:20:15;253.90;;;103.50;;
4744;SDS011;2386;42.138;24.746;2023-02-26T00:22:41;257.63;;;103.93;;
4744;SDS011;2386;42.138;24.746;2023-02-26T00:25:08;263.07;;;104.17;;
4744;SDS011;2386;42.138;24.746;2023-02-26T00:27:34;234.43;;;96.33;;
4744;SDS011;2386;42.138;24.746;2023-02-26T00:30:00;225.60;;;97.53;;
4744;SDS011;2386;42.138;24.746;2023-02-26T00:32:27;233.17;;;98.37;;
4744;SDS011;2386;42.138;24.746;2023-02-26T00:34:53;233.97;;;100.70;;
4744;SDS011;2386;42.138;24.746;2023-02-26T00:42:45;262.13;;;103.00;;
4744;SDS011;2386;42.138;24.746;2023-02-26T00:45:11;241.27;;;101.97;;
4744;SDS011;2386;42.138;24.746;2023-02-26T00:50:28;233.40;;;102.40;;
4744;SDS011;2386;42.138;24.746;2023-02-26T00:55:25;241.53;;;100.87;;
4744;SDS011;2386;42.138;24.746;2023-02-26T00:57:51;225.63;;;101.33;;
4744;SDS011;2386;42.138;24.746;2023-02-26T01:00:17;265.57;;;108.50;;
4744;SDS011;2386;42.138;24.746;2023-02-26T01:02:43;249.77;;;106.17;;
4744;SDS011;2386;42.138;24.746;2023-02-26T01:05:09;260.73;;;108.20;;
4744;SDS011;2386;42.138;24.746;2023-02-26T01:07:53;284.27;;;115.03;;
4744;SDS011;2386;42.138;24.746;2023-02-26T01:10:27;270.87;;;106.43;;
4744;SDS011;2386;42.138;24.746;2023-02-26T01:12:53;291.73;;;114.80;;
4744;SDS011;2386;42.138;24.746;2023-02-26T01:15:20;287.17;;;112.47;;
4744;SDS011;2386;42.138;24.746;2023-02-26T01:17:54;266.63;;;112.10;;
4744;SDS011;2386;42.138;24.746;2023-02-26T01:20:28;273.80;;;110.10;;
4744;SDS011;2386;42.138;24.746;2023-02-26T01:23:06;291.73;;;114.20;;
4744;SDS011;2386;42.138;24.746;2023-02-26T01:25:46;263.60;;;107.57;;
4744;SDS011;2386;42.138;24.746;2023-02-26T01:28:15;286.33;;;112.57;;
4744;SDS011;2386;42.138;24.746;2023-02-26T01:30:41;275.70;;;109.60;;
4744;SDS011;2386;42.138;24.746;2023-02-26T01:33:09;292.87;;;115.63;;
4744;SDS011;2386;42.138;24.746;2023-02-26T01:35:47;280.63;;;112.07;;
4744;SDS011;2386;42.138;24.746;2023-02-26T01:43:38;275.57;;;109.57;;
4744;SDS011;2386;42.138;24.746;2023-02-26T01:46:27;265.53;;;109.03;;
4744;SDS011;2386;42.138;24.746;2023-02-26T01:48:59;283.50;;;106.83;;
4744;SDS011;2386;42.138;24.746;2023-02-26T01:54:11;276.80;;;107.87;;
4744;SDS011;2386;42.138;24.746;2023-02-26T01:56:38;280.73;;;111.00;;
4744;SDS011;2386;42.138;24.746;2023-02-26T01:59:05;304.57;;;113.73;;
4744;SDS011;2386;42.138;24.746;2023-02-26T02:01:32;292.20;;;111.87;;
4744;SDS011;2386;42.138;24.746;2023-02-26T02:03:58;298.57;;;116.07;;
4744;SDS011;2386;42.138;24.746;2023-02-26T02:06:25;296.70;;;114.23;;
4744;SDS011;2386;42.138;24.746;2023-02-26T02:08:52;287.03;;;112.47;;
4744;SDS011;2386;42.138;24.746;2023-02-26T02:11:18;300.87;;;117.53;;
4744;SDS011;2386;42.138;24.746;2023-02-26T02:14:07;269.43;;;112.23;;
4744;SDS011;2386;42.138;24.746;2023-02-26T02:22:08;308.00;;;116.10;;
4744;SDS011;2386;42.138;24.746;2023-02-26T02:31:13;304.30;;;114.97;;
4744;SDS011;2386;42.138;24.746;2023-02-26T02:33:26;308.97;;;114.57;;
4744;SDS011;2386;42.138;24.746;2023-02-26T02:35:59;317.23;;;111.87;;
4744;SDS011;2386;42.138;24.746;2023-02-26T02:38:36;332.03;;;118.37;;
4744;SDS011;2386;42.138;24.746;2023-02-26T02:42:15;326.77;;;117.10;;
4744;SDS011;2386;42.138;24.746;2023-02-26T02:44:09;342.10;;;122.73;;
4744;SDS011;2386;42.138;24.746;2023-02-26T02:46:39;336.83;;;118.87;;
4744;SDS011;2386;42.138;24.746;2023-02-26T02:49:12;342.47;;;125.53;;
4744;SDS011;2386;42.138;24.746;2023-02-26T02:51:48;343.47;;;129.03;;
4744;SDS011;2386;42.138;24.746;2023-02-26T02:54:19;332.37;;;123.83;;
4744;SDS011;2386;42.138;24.746;2023-02-26T02:56:53;348.30;;;126.50;;
4744;SDS011;2386;42.138;24.746;2023-02-26T02:59:24;359.13;;;131.93;;
4744;SDS011;2386;42.138;24.746;2023-02-26T03:01:59;354.43;;;132.43;;
4744;SDS011;2386;42.138;24.746;2023-02-26T03:04:35;361.70;;;132.43;;
4744;SDS011;2386;42.138;24.746;2023-02-26T03:07:02;349.97;;;134.30;;
4744;SDS011;2386;42.138;24.746;2023-02-26T03:09:28;347.10;;;132.40;;
4744;SDS011;2386;42.138;24.746;2023-02-26T03:11:53;338.37;;;136.23;;
4744;SDS011;2386;42.138;24.746;2023-02-26T03:14:19;360.17;;;141.67;;
4744;SDS011;2386;42.138;24.746;2023-02-26T03:22:27;364.00;;;137.80;;
4744;SDS011;2386;42.138;24.746;2023-02-26T03:25:04;337.00;;;132.37;;
4744;SDS011;2386;42.138;24.746;2023-02-26T03:27:41;332.13;;;131.57;;
4744;SDS011;2386;42.138;24.746;2023-02-26T03:30:15;312.57;;;135.77;;
4744;SDS011;2386;42.138;24.746;2023-02-26T03:35:16;319.60;;;136.33;;
4744;SDS011;2386;42.138;24.746;2023-02-26T03:37:51;323.40;;;136.03;;
4744;SDS011;2386;42.138;24.746;2023-02-26T03:40:23;325.47;;;136.50;;
4744;SDS011;2386;42.138;24.746;2023-02-26T03:42:56;312.50;;;134.90;;
4744;SDS011;2386;42.138;24.746;2023-02-26T03:45:28;296.97;;;126.40;;
4744;SDS011;2386;42.138;24.746;2023-02-26T03:47:57;302.03;;;128.20;;
4744;SDS011;2386;42.138;24.746;2023-02-26T03:52:59;326.60;;;137.90;;
4744;SDS011;2386;42.138;24.746;2023-02-26T03:55:29;303.67;;;129.73;;
4744;SDS011;2386;42.138;24.746;2023-02-26T03:58:00;309.33;;;127.93;;
4744;SDS011;2386;42.138;24.746;2023-02-26T04:00:26;309.57;;;128.70;;
4744;SDS011;2386;42.138;24.746;2023-02-26T04:03:10;303.50;;;129.90;;
4744;SDS011;2386;42.138;24.746;2023-02-26T04:05:44;299.43;;;124.37;;
4744;SDS011;2386;42.138;24.746;2023-02-26T04:08:13;324.03;;;127.63;;
4744;SDS011;2386;42.138;24.746;2023-02-26T04:11:13;306.60;;;127.67;;
4744;SDS011;2386;42.138;24.746;2023-02-26T04:13:33;297.93;;;121.13;;
4744;SDS011;2386;42.138;24.746;2023-02-26T04:15:59;307.77;;;124.30;;
4744;SDS011;2386;42.138;24.746;2023-02-26T04:18:24;295.40;;;119.27;;
4744;SDS011;2386;42.138;24.746;2023-02-26T04:20:50;293.80;;;116.23;;
4744;SDS011;2386;42.138;24.746;2023-02-26T04:23:15;306.63;;;121.60;;
4744;SDS011;2386;42.138;24.746;2023-02-26T04:25:41;287.83;;;112.37;;
4744;SDS011;2386;42.138;24.746;2023-02-26T04:28:06;304.70;;;117.80;;
4744;SDS011;2386;42.138;24.746;2023-02-26T04:30:32;290.40;;;114.13;;
4744;SDS011;2386;42.138;24.746;2023-02-26T04:32:57;289.93;;;119.77;;
4744;SDS011;2386;42.138;24.746;2023-02-26T04:35:23;307.60;;;124.30;;
4744;SDS011;2386;42.138;24.746;2023-02-26T04:37:48;296.17;;;115.27;;
4744;SDS011;2386;42.138;24.746;2023-02-26T04:40:14;299.57;;;115.53;;
4744;SDS011;2386;42.138;24.746;2023-02-26T04:42:39;318.37;;;123.43;;
4744;SDS011;2386;42.138;24.746;2023-02-26T04:45:05;307.67;;;121.20;;
4744;SDS011;2386;42.138;24.746;2023-02-26T04:47:31;295.47;;;119.37;;
4744;SDS011;2386;42.138;24.746;2023-02-26T04:49:56;306.60;;;122.67;;
4744;SDS011;2386;42.138;24.746;2023-02-26T04:52:22;279.53;;;115.93;;
4744;SDS011;2386;42.138;24.746;2023-02-26T04:54:47;282.53;;;115.27;;
4744;SDS011;2386;42.138;24.746;2023-02-26T04:57:12;297.87;;;119.27;;
4744;SDS011;2386;42.138;24.746;2023-02-26T04:59:38;284.37;;;118.20;;
4744;SDS011;2386;42.138;24.746;2023-02-26T05:02:04;317.10;;;118.37;;
4744;SDS011;2386;42.138;24.746;2023-02-26T05:04:30;300.57;;;119.90;;
4744;SDS011;2386;42.138;24.746;2023-02-26T05:06:55;291.97;;;117.73;;
4744;SDS011;2386;42.138;24.746;2023-02-26T05:09:21;294.70;;;120.97;;
4744;SDS011;2386;42.138;24.746;2023-02-26T05:11:46;297.17;;;121.30;;
4744;SDS011;2386;42.138;24.746;2023-02-26T05:14:13;277.43;;;117.70;;
4744;SDS011;2386;42.138;24.746;2023-02-26T05:16:39;271.87;;;114.33;;
4744;SDS011;2386;42.138;24.746;2023-02-26T05:19:04;278.67;;;112.53;;
4744;SDS011;2386;42.138;24.746;2023-02-26T05:21:30;280.83;;;116.47;;
4744;SDS011;2386;42.138;24.746;2023-02-26T05:23:55;287.93;;;118.30;;
4744;SDS011;2386;42.138;24.746;2023-02-26T05:26:21;285.07;;;121.87;;
4744;SDS011;2386;42.138;24.746;2023-02-26T05:28:47;296.53;;;117.97;;
4744;SDS011;2386;42.138;24.746;2023-02-26T05:31:13;292.93;;;117.97;;
4744;SDS011;2386;42.138;24.746;2023-02-26T05:33:39;295.40;;;116.67;;
4744;SDS011;2386;42.138;24.746;2023-02-26T05:36:05;227.77;;;107.13;;
4744;SDS011;2386;42.138;24.746;2023-02-26T05:38:31;266.67;;;118.17;;
4744;SDS011;2386;42.138;24.746;2023-02-26T05:40:57;276.43;;;119.50;;
4744;SDS011;2386;42.138;24.746;2023-02-26T05:43:23;266.03;;;117.23;;
4744;SDS011;2386;42.138;24.746;2023-02-26T05:45:50;276.07;;;116.77;;
4744;SDS011;2386;42.138;24.746;2023-02-26T05:48:15;276.70;;;120.53;;
4744;SDS011;2386;42.138;24.746;2023-02-26T05:50:41;283.13;;;122.07;;
4744;SDS011;2386;42.138;24.746;2023-02-26T05:53:06;295.33;;;125.83;;
4744;SDS011;2386;42.138;24.746;2023-02-26T05:55:32;284.43;;;123.73;;
4744;SDS011;2386;42.138;24.746;2023-02-26T05:57:58;274.60;;;113.70;;
4744;SDS011;2386;42.138;24.746;2023-02-26T06:00:24;270.03;;;116.27;;
4744;SDS011;2386;42.138;24.746;2023-02-26T06:02:49;288.77;;;118.83;;
4744;SDS011;2386;42.138;24.746;2023-02-26T06:05:14;269.73;;;110.63;;
4744;SDS011;2386;42.138;24.746;2023-02-26T06:07:40;282.30;;;113.10;;
4744;SDS011;2386;42.138;24.746;2023-02-26T06:10:06;285.07;;;119.13;;
4744;SDS011;2386;42.138;24.746;2023-02-26T06:12:32;289.10;;;116.83;;
4744;SDS011;2386;42.138;24.746;2023-02-26T06:14:58;291.67;;;119.77;;
4744;SDS011;2386;42.138;24.746;2023-02-26T06:17:24;319.20;;;126.77;;
4744;SDS011;2386;42.138;24.746;2023-02-26T06:19:49;293.60;;;118.83;;
4744;SDS011;2386;42.138;24.746;2023-02-26T06:22:16;295.73;;;121.83;;
4744;SDS011;2386;42.138;24.746;2023-02-26T06:24:42;309.40;;;130.93;;
4744;SDS011;2386;42.138;24.746;2023-02-26T06:27:07;318.07;;;126.90;;
4744;SDS011;2386;42.138;24.746;2023-02-26T06:29:33;305.03;;;125.80;;
4744;SDS011;2386;42.138;24.746;2023-02-26T06:31:58;326.80;;;128.97;;
4744;SDS011;2386;42.138;24.746;2023-02-26T06:34:24;306.80;;;128.33;;
4744;SDS011;2386;42.138;24.746;2023-02-26T06:36:50;291.43;;;124.37;;
4744;SDS011;2386;42.138;24.746;2023-02-26T06:39:15;311.00;;;124.60;;
4744;SDS011;2386;42.138;24.746;2023-02-26T06:41:40;323.03;;;129.47;;
4744;SDS011;2386;42.138;24.746;2023-02-26T06:44:06;329.97;;;129.83;;
4744;SDS011;2386;42.138;24.746;2023-02-26T06:46:31;318.20;;;129.43;;
4744;SDS011;2386;42.138;24.746;2023-02-26T06:48:57;303.37;;;126.37;;
4744;SDS011;2386;42.138;24.746;2023-02-26T06:51:22;328.73;;;132.80;;
4744;SDS011;2386;42.138;24.746;2023-02-26T06:53:48;323.13;;;131.87;;
4744;SDS011;2386;42.138;24.746;2023-02-26T06:56:13;323.93;;;136.23;;
4744;SDS011;2386;42.138;24.746;2023-02-26T06:58:39;312.23;;;124.73;;
4744;SDS011;2386;42.138;24.746;2023-02-26T07:01:04;315.57;;;134.07;;
4744;SDS011;2386;42.138;24.746;2023-02-26T07:03:29;322.80;;;134.47;;
4744;SDS011;2386;42.138;24.746;2023-02-26T07:05:55;320.00;;;136.17;;
4744;SDS011;2386;42.138;24.746;2023-02-26T07:08:21;304.57;;;130.30;;
4744;SDS011;2386;42.138;24.746;2023-02-26T07:10:48;305.57;;;133.43;;
4744;SDS011;2386;42.138;24.746;2023-02-26T07:13:14;322.93;;;134.43;;
4744;SDS011;2386;42.138;24.746;2023-02-26T07:15:40;315.43;;;137.30;;
4744;SDS011;2386;42.138;24.746;2023-02-26T07:18:05;333.77;;;146.47;;
4744;SDS011;2386;42.138;24.746;2023-02-26T07:20:30;312.80;;;143.13;;
4744;SDS011;2386;42.138;24.746;2023-02-26T07:22:57;316.17;;;143.90;;
4744;SDS011;2386;42.138;24.746;2023-02-26T07:25:22;338.40;;;149.63;;
4744;SDS011;2386;42.138;24.746;2023-02-26T07:27:48;334.13;;;157.50;;
4744;SDS011;2386;42.138;24.746;2023-02-26T07:30:14;332.53;;;155.67;;
4744;SDS011;2386;42.138;24.746;2023-02-26T07:32:40;349.63;;;158.07;;
4744;SDS011;2386;42.138;24.746;2023-02-26T07:35:05;346.73;;;169.63;;
4744;SDS011;2386;42.138;24.746;2023-02-26T07:37:32;360.77;;;169.13;;
4744;SDS011;2386;42.138;24.746;2023-02-26T07:39:57;365.60;;;179.57;;
4744;SDS011;2386;42.138;24.746;2023-02-26T07:42:23;375.00;;;178.00;;
4744;SDS011;2386;42.138;24.746;2023-02-26T07:44:55;387.80;;;184.73;;
4744;SDS011;2386;42.138;24.746;2023-02-26T07:47:20;424.20;;;205.47;;
4744;SDS011;2386;42.138;24.746;2023-02-26T07:49:46;401.47;;;204.57;;
4744;SDS011;2386;42.138;24.746;2023-02-26T07:52:11;391.47;;;197.30;;
4744;SDS011;2386;42.138;24.746;2023-02-26T07:54:37;401.20;;;192.13;;
4744;SDS011;2386;42.138;24.746;2023-02-26T07:57:03;397.87;;;209.00;;
4744;SDS011;2386;42.138;24.746;2023-02-26T07:59:29;370.50;;;206.03;;
4744;SDS011;2386;42.138;24.746;2023-02-26T08:01:54;406.33;;;210.67;;
4744;SDS011;2386;42.138;24.746;2023-02-26T08:04:20;382.10;;;211.27;;
4744;SDS011;2386;42.138;24.746;2023-02-26T08:06:45;386.60;;;206.60;;
4744;SDS011;2386;42.138;24.746;2023-02-26T08:09:11;414.70;;;210.80;;
4744;SDS011;2386;42.138;24.746;2023-02-26T08:11:36;392.57;;;215.33;;
4744;SDS011;2386;42.138;24.746;2023-02-26T08:14:05;424.27;;;219.77;;
4744;SDS011;2386;42.138;24.746;2023-02-26T08:16:30;430.73;;;234.73;;
4744;SDS011;2386;42.138;24.746;2023-02-26T08:18:56;418.50;;;224.10;;
4744;SDS011;2386;42.138;24.746;2023-02-26T08:21:22;423.30;;;224.03;;
4744;SDS011;2386;42.138;24.746;2023-02-26T08:23:48;426.77;;;228.43;;
4744;SDS011;2386;42.138;24.746;2023-02-26T08:26:13;431.57;;;225.97;;
4744;SDS011;2386;42.138;24.746;2023-02-26T08:28:40;408.27;;;216.20;;
4744;SDS011;2386;42.138;24.746;2023-02-26T08:31:05;415.43;;;222.10;;
4744;SDS011;2386;42.138;24.746;2023-02-26T08:33:33;426.60;;;230.30;;
4744;SDS011;2386;42.138;24.746;2023-02-26T08:35:58;439.17;;;237.00;;
4744;SDS011;2386;42.138;24.746;2023-02-26T08:38:26;447.27;;;246.57;;
4744;SDS011;2386;42.138;24.746;2023-02-26T08:40:53;438.23;;;251.23;;
4744;SDS011;2386;42.138;24.746;2023-02-26T08:43:19;409.47;;;233.70;;
4744;SDS011;2386;42.138;24.746;2023-02-26T08:45:45;434.20;;;257.63;;
4744;SDS011;2386;42.138;24.746;2023-02-26T08:48:10;416.23;;;242.70;;
4744;SDS011;2386;42.138;24.746;2023-02-26T08:50:36;446.87;;;252.43;;
4744;SDS011;2386;42.138;24.746;2023-02-26T08:53:02;440.40;;;248.43;;
4744;SDS011;2386;42.138;24.746;2023-02-26T08:55:28;442.17;;;252.43;;
4744;SDS011;2386;42.138;24.746;2023-02-26T08:57:53;437.00;;;252.27;;
4744;SDS011;2386;42.138;24.746;2023-02-26T09:00:19;449.77;;;261.07;;
4744;SDS011;2386;42.138;24.746;2023-02-26T09:02:45;458.47;;;261.27;;
4744;SDS011;2386;42.138;24.746;2023-02-26T09:05:10;451.53;;;250.73;;
4744;SDS011;2386;42.138;24.746;2023-02-26T09:07:36;444.80;;;259.13;;
4744;SDS011;2386;42.138;24.746;2023-02-26T09:10:03;450.70;;;264.27;;
4744;SDS011;2386;42.138;24.746;2023-02-26T09:12:29;447.83;;;269.50;;
4744;SDS011;2386;42.138;24.746;2023-02-26T09:14:54;453.23;;;271.03;;
4744;SDS011;2386;42.138;24.746;2023-02-26T09:17:23;454.07;;;280.83;;
4744;SDS011;2386;42.138;24.746;2023-02-26T09:19:49;451.73;;;271.90;;
4744;SDS011;2386;42.138;24.746;2023-02-26T09:22:14;449.40;;;277.43;;
4744;SDS011;2386;42.138;24.746;2023-02-26T09:24:39;439.07;;;272.87;;
4744;SDS011;2386;42.138;24.746;2023-02-26T09:27:05;468.57;;;295.43;;
4744;SDS011;2386;42.138;24.746;2023-02-26T09:29:30;454.70;;;284.13;;
4744;SDS011;2386;42.138;24.746;2023-02-26T09:31:56;453.40;;;306.80;;
4744;SDS011;2386;42.138;24.746;2023-02-26T09:34:21;452.87;;;304.47;;
4744;SDS011;2386;42.138;24.746;2023-02-26T09:36:46;459.83;;;306.67;;
4744;SDS011;2386;42.138;24.746;2023-02-26T09:39:12;464.77;;;317.10;;
4744;SDS011;2386;42.138;24.746;2023-02-26T09:51:45;461.63;;;305.70;;
4744;SDS011;2386;42.138;24.746;2023-02-26T09:54:19;477.67;;;320.53;;
4744;SDS011;2386;42.138;24.746;2023-02-26T09:56:47;467.47;;;314.67;;
4744;SDS011;2386;42.138;24.746;2023-02-26T09:59:15;465.07;;;315.03;;
4744;SDS011;2386;42.138;24.746;2023-02-26T10:12:38;455.20;;;303.93;;
4744;SDS011;2386;42.138;24.746;2023-02-26T10:15:14;448.03;;;295.97;;
4744;SDS011;2386;42.138;24.746;2023-02-26T10:17:59;455.63;;;289.97;;
4744;SDS011;2386;42.138;24.746;2023-02-26T10:22:59;464.43;;;308.30;;
4744;SDS011;2386;42.138;24.746;2023-02-26T10:25:38;452.80;;;298.27;;
4744;SDS011;2386;42.138;24.746;2023-02-26T10:31:10;444.63;;;299.17;;
4744;SDS011;2386;42.138;24.746;2023-02-26T10:33:49;450.47;;;299.40;;
4744;SDS011;2386;42.138;24.746;2023-02-26T10:38:48;468.50;;;302.57;;
4744;SDS011;2386;42.138;24.746;2023-02-26T10:41:19;453.03;;;310.23;;
4744;SDS011;2386;42.138;24.746;2023-02-26T10:43:50;450.97;;;300.73;;
4744;SDS011;2386;42.138;24.746;2023-02-26T10:49:39;456.77;;;311.07;;
4744;SDS011;2386;42.138;24.746;2023-02-26T10:52:15;462.00;;;312.27;;
4744;SDS011;2386;42.138;24.746;2023-02-26T10:57:19;446.23;;;315.40;;
4744;SDS011;2386;42.138;24.746;2023-02-26T10:59:49;447.17;;;308.90;;
4744;SDS011;2386;42.138;24.746;2023-02-26T11:02:32;437.53;;;305.03;;
4744;SDS011;2386;42.138;24.746;2023-02-26T11:05:00;446.73;;;291.87;;
4744;SDS011;2386;42.138;24.746;2023-02-26T11:07:28;447.07;;;301.10;;
4744;SDS011;2386;42.138;24.746;2023-02-26T11:09:54;449.60;;;305.03;;
4744;SDS011;2386;42.138;24.746;2023-02-26T11:12:19;440.40;;;304.37;;
4744;SDS011;2386;42.138;24.746;2023-02-26T11:14:48;450.43;;;293.93;;
4744;SDS011;2386;42.138;24.746;2023-02-26T11:22:44;451.37;;;308.30;;
4744;SDS011;2386;42.138;24.746;2023-02-26T11:25:17;454.27;;;305.40;;
4744;SDS011;2386;42.138;24.746;2023-02-26T11:27:47;450.43;;;296.43;;
4744;SDS011;2386;42.138;24.746;2023-02-26T11:30:17;454.43;;;305.00;;
4744;SDS011;2386;42.138;24.746;2023-02-26T11:32:45;455.87;;;311.57;;
4744;SDS011;2386;42.138;24.746;2023-02-26T11:35:14;456.27;;;308.07;;
4744;SDS011;2386;42.138;24.746;2023-02-26T11:37:51;446.43;;;312.60;;
4744;SDS011;2386;42.138;24.746;2023-02-26T11:40:25;439.87;;;305.83;;
4744;SDS011;2386;42.138;24.746;2023-02-26T11:42:57;440.30;;;306.70;;
4744;SDS011;2386;42.138;24.746;2023-02-26T11:45:24;437.00;;;320.77;;
4744;SDS011;2386;42.138;24.746;2023-02-26T11:47:58;434.03;;;308.30;;
4744;SDS011;2386;42.138;24.746;2023-02-26T11:50:26;439.13;;;324.03;;
4744;SDS011;2386;42.138;24.746;2023-02-26T11:52:55;445.27;;;329.30;;
4744;SDS011;2386;42.138;24.746;2023-02-26T11:55:31;446.50;;;343.67;;
4744;SDS011;2386;42.138;24.746;2023-02-26T11:58:01;441.70;;;339.77;;
4744;SDS011;2386;42.138;24.746;2023-02-26T12:00:38;458.87;;;345.27;;
4744;SDS011;2386;42.138;24.746;2023-02-26T12:03:14;444.37;;;332.77;;
4744;SDS011;2386;42.138;24.746;2023-02-26T12:05:44;448.50;;;327.50;;
4744;SDS011;2386;42.138;24.746;2023-02-26T12:16:28;450.83;;;328.40;;
4744;SDS011;2386;42.138;24.746;2023-02-26T12:22:13;449.27;;;311.30;;
4744;SDS011;2386;42.138;24.746;2023-02-26T12:25:00;445.20;;;316.50;;
4744;SDS011;2386;42.138;24.746;2023-02-26T12:30:14;450.80;;;317.57;;
4744;SDS011;2386;42.138;24.746;2023-02-26T12:38:19;430.17;;;309.97;;
4744;SDS011;2386;42.138;24.746;2023-02-26T12:43:48;428.87;;;302.40;;
4744;SDS011;2386;42.138;24.746;2023-02-26T12:46:21;443.20;;;320.43;;
4744;SDS011;2386;42.138;24.746;2023-02-26T13:11:18;428.43;;;306.63;;
4744;SDS011;2386;42.138;24.746;2023-02-26T13:19:29;420.20;;;288.20;;
4744;SDS011;2386;42.138;24.746;2023-02-26T13:21:58;420.63;;;290.70;;
4744;SDS011;2386;42.138;24.746;2023-02-26T13:24:34;427.97;;;304.80;;
4744;SDS011;2386;42.138;24.746;2023-02-26T13:27:05;427.53;;;306.00;;
4744;SDS011;2386;42.138;24.746;2023-02-26T13:29:36;407.47;;;301.93;;
4744;SDS011;2386;42.138;24.746;2023-02-26T13:32:13;418.27;;;290.63;;
4744;SDS011;2386;42.138;24.746;2023-02-26T13:42:37;416.20;;;293.27;;
4744;SDS011;2386;42.138;24.746;2023-02-26T13:45:17;421.43;;;303.97;;
4744;SDS011;2386;42.138;24.746;2023-02-26T13:47:57;418.43;;;286.77;;
4744;SDS011;2386;42.138;24.746;2023-02-26T13:53:35;431.27;;;300.27;;
4744;SDS011;2386;42.138;24.746;2023-02-26T13:58:38;414.63;;;295.37;;
4744;SDS011;2386;42.138;24.746;2023-02-26T14:01:18;419.50;;;301.90;;
4744;SDS011;2386;42.138;24.746;2023-02-26T14:03:52;417.83;;;294.57;;
4744;SDS011;2386;42.138;24.746;2023-02-26T14:07:14;404.50;;;297.13;;
4744;SDS011;2386;42.138;24.746;2023-02-26T14:19:43;410.30;;;301.40;;
4744;SDS011;2386;42.138;24.746;2023-02-26T14:22:36;392.47;;;281.33;;
4744;SDS011;2386;42.138;24.746;2023-02-26T14:27:49;391.00;;;287.73;;
4744;SDS011;2386;42.138;24.746;2023-02-26T14:30:26;407.23;;;282.40;;
4744;SDS011;2386;42.138;24.746;2023-02-26T14:35:38;407.00;;;279.93;;
4744;SDS011;2386;42.138;24.746;2023-02-26T14:38:10;399.57;;;275.20;;
4744;SDS011;2386;42.138;24.746;2023-02-26T14:43:44;422.50;;;266.93;;
4744;SDS011;2386;42.138;24.746;2023-02-26T14:46:17;418.37;;;257.47;;
4744;SDS011;2386;42.138;24.746;2023-02-26T14:48:43;400.63;;;262.00;;
4744;SDS011;2386;42.138;24.746;2023-02-26T14:51:17;403.37;;;256.07;;
4744;SDS011;2386;42.138;24.746;2023-02-26T15:02:41;381.33;;;247.00;;
4744;SDS011;2386;42.138;24.746;2023-02-26T15:13:47;395.53;;;251.27;;
4744;SDS011;2386;42.138;24.746;2023-02-26T15:22:12;380.87;;;248.80;;
4744;SDS011;2386;42.138;24.746;2023-02-26T15:24:44;407.40;;;260.47;;
4744;SDS011;2386;42.138;24.746;2023-02-26T15:27:13;399.43;;;253.03;;
4744;SDS011;2386;42.138;24.746;2023-02-26T15:29:41;389.80;;;254.20;;
4744;SDS011;2386;42.138;24.746;2023-02-26T15:34:59;375.43;;;241.63;;
4744;SDS011;2386;42.138;24.746;2023-02-26T15:37:28;373.00;;;233.63;;
4744;SDS011;2386;42.138;24.746;2023-02-26T15:39:59;388.00;;;238.23;;
4744;SDS011;2386;42.138;24.746;2023-02-26T15:42:29;388.67;;;255.93;;
4744;SDS011;2386;42.138;24.746;2023-02-26T15:44:58;391.60;;;243.60;;
4744;SDS011;2386;42.138;24.746;2023-02-26T15:47:26;402.73;;;248.43;;
4744;SDS011;2386;42.138;24.746;2023-02-26T15:49:53;374.10;;;257.10;;
4744;SDS011;2386;42.138;24.746;2023-02-26T15:52:21;382.73;;;259.17;;
4744;SDS011;2386;42.138;24.746;2023-02-26T15:54:59;372.37;;;243.90;;
4744;SDS011;2386;42.138;24.746;2023-02-26T15:57:28;382.40;;;248.10;;
4744;SDS011;2386;42.138;24.746;2023-02-26T16:00:00;379.10;;;232.60;;
4744;SDS011;2386;42.138;24.746;2023-02-26T16:02:34;353.60;;;237.70;;
4744;SDS011;2386;42.138;24.746;2023-02-26T16:05:01;354.40;;;230.20;;
4744;SDS011;2386;42.138;24.746;2023-02-26T16:07:27;370.63;;;246.57;;
4744;SDS011;2386;42.138;24.746;2023-02-26T16:09:53;353.63;;;228.60;;
4744;SDS011;2386;42.138;24.746;2023-02-26T16:12:31;361.37;;;242.67;;
4744;SDS011;2386;42.138;24.746;2023-02-26T16:15:12;356.40;;;225.43;;
4744;SDS011;2386;42.138;24.746;2023-02-26T16:17:41;370.27;;;235.67;;
4744;SDS011;2386;42.138;24.746;2023-02-26T16:20:21;363.53;;;224.50;;
4744;SDS011;2386;42.138;24.746;2023-02-26T16:22:52;363.57;;;227.33;;
4744;SDS011;2386;42.138;24.746;2023-02-26T16:25:27;367.27;;;225.93;;
4744;SDS011;2386;42.138;24.746;2023-02-26T16:28:01;374.50;;;233.27;;
4744;SDS011;2386;42.138;24.746;2023-02-26T16:30:30;368.43;;;231.23;;
4744;SDS011;2386;42.138;24.746;2023-02-26T16:32:59;359.00;;;226.17;;
4744;SDS011;2386;42.138;24.746;2023-02-26T16:35:27;370.93;;;235.07;;
4744;SDS011;2386;42.138;24.746;2023-02-26T16:38:04;370.90;;;241.93;;
4744;SDS011;2386;42.138;24.746;2023-02-26T16:40:37;378.40;;;241.17;;
4744;SDS011;2386;42.138;24.746;2023-02-26T16:43:05;364.40;;;232.13;;
4744;SDS011;2386;42.138;24.746;2023-02-26T16:46:06;368.87;;;224.53;;
4744;SDS011;2386;42.138;24.746;2023-02-26T16:48:45;380.73;;;240.63;;
4744;SDS011;2386;42.138;24.746;2023-02-26T16:51:38;363.63;;;228.83;;
4744;SDS011;2386;42.138;24.746;2023-02-26T16:54:06;396.27;;;241.83;;
4744;SDS011;2386;42.138;24.746;2023-02-26T16:56:39;387.60;;;227.13;;
4744;SDS011;2386;42.138;24.746;2023-02-26T16:59:13;364.33;;;229.13;;
4744;SDS011;2386;42.138;24.746;2023-02-26T17:04:21;362.43;;;232.10;;
4744;SDS011;2386;42.138;24.746;2023-02-26T17:06:50;374.80;;;222.63;;
4744;SDS011;2386;42.138;24.746;2023-02-26T17:09:24;375.10;;;232.40;;
4744;SDS011;2386;42.138;24.746;2023-02-26T17:12:15;377.00;;;223.20;;
4744;SDS011;2386;42.138;24.746;2023-02-26T17:14:51;377.53;;;219.67;;
4744;SDS011;2386;42.138;24.746;2023-02-26T17:17:19;360.77;;;209.93;;
4744;SDS011;2386;42.138;24.746;2023-02-26T17:19:44;372.10;;;223.63;;
4744;SDS011;2386;42.138;24.746;2023-02-26T17:22:11;389.93;;;224.57;;
4744;SDS011;2386;42.138;24.746;2023-02-26T17:24:40;372.63;;;225.43;;
4744;SDS011;2386;42.138;24.746;2023-02-26T17:27:10;386.37;;;226.27;;
4744;SDS011;2386;42.138;24.746;2023-02-26T17:29:40;369.63;;;227.87;;
4744;SDS011;2386;42.138;24.746;2023-02-26T17:32:25;380.43;;;232.67;;
4744;SDS011;2386;42.138;24.746;2023-02-26T17:34:52;380.60;;;221.60;;
4744;SDS011;2386;42.138;24.746;2023-02-26T17:37:18;378.07;;;222.43;;